sensor_id;sensor_type;location;lat;lon;timestamp;P1;durP1;ratioP1;P2;durP2;ratioP2
16407;SDS011;8313;49.894;8.084;2023-03-24T00:02:18;3.80;;;2.40;;
16407;SDS011;8313;49.894;8.084;2023-03-24T00:04:46;6.40;;;2.60;;
16407;SDS011;8313;49.894;8.084;2023-03-24T00:07:14;4.90;;;2.73;;
16407;SDS011;8313;49.894;8.084;2023-03-24T00:09:40;2.80;;;2.53;;
16407;SDS011;8313;49.894;8.084;2023-03-24T00:12:07;2.97;;;2.57;;
16407;SDS011;8313;49.894;8.084;2023-03-24T00:14:35;4.37;;;2.50;;
16407;SDS011;8313;49.894;8.084;2023-03-24T00:17:03;2.50;;;2.30;;
16407;SDS011;8313;49.894;8.084;2023-03-24T00:19:30;3.60;;;3.10;;
16407;SDS011;8313;49.894;8.084;2023-03-24T00:21:58;3.23;;;2.63;;
16407;SDS011;8313;49.894;8.084;2023-03-24T00:24:25;3.10;;;2.43;;
16407;SDS011;8313;49.894;8.084;2023-03-24T00:26:51;3.73;;;3.43;;
16407;SDS011;8313;49.894;8.084;2023-03-24T00:29:21;3.40;;;2.30;;
16407;SDS011;8313;49.894;8.084;2023-03-24T00:31:49;2.70;;;2.50;;
16407;SDS011;8313;49.894;8.084;2023-03-24T00:34:17;2.77;;;2.57;;
16407;SDS011;8313;49.894;8.084;2023-03-24T00:36:47;3.43;;;3.13;;
16407;SDS011;8313;49.894;8.084;2023-03-24T00:39:15;3.00;;;2.80;;
16407;SDS011;8313;49.894;8.084;2023-03-24T00:41:44;2.80;;;2.40;;
16407;SDS011;8313;49.894;8.084;2023-03-24T00:44:12;2.80;;;2.20;;
16407;SDS011;8313;49.894;8.084;2023-03-24T00:46:45;2.87;;;2.53;;
16407;SDS011;8313;49.894;8.084;2023-03-24T00:49:19;2.27;;;2.03;;
16407;SDS011;8313;49.894;8.084;2023-03-24T00:54:45;2.50;;;2.07;;
16407;SDS011;8313;49.894;8.084;2023-03-24T00:57:15;2.57;;;2.33;;
16407;SDS011;8313;49.894;8.084;2023-03-24T00:59:46;7.20;;;2.40;;
16407;SDS011;8313;49.894;8.084;2023-03-24T01:02:18;2.27;;;2.10;;
16407;SDS011;8313;49.894;8.084;2023-03-24T01:04:54;4.83;;;2.87;;
16407;SDS011;8313;49.894;8.084;2023-03-24T01:07:23;3.07;;;2.50;;
16407;SDS011;8313;49.894;8.084;2023-03-24T01:09:50;3.40;;;2.60;;
16407;SDS011;8313;49.894;8.084;2023-03-24T01:12:25;4.00;;;2.60;;
16407;SDS011;8313;49.894;8.084;2023-03-24T01:14:57;2.93;;;2.63;;
16407;SDS011;8313;49.894;8.084;2023-03-24T01:17:24;3.33;;;3.03;;
16407;SDS011;8313;49.894;8.084;2023-03-24T01:19:50;3.50;;;3.20;;
16407;SDS011;8313;49.894;8.084;2023-03-24T01:22:17;3.30;;;2.30;;
16407;SDS011;8313;49.894;8.084;2023-03-24T01:24:45;4.67;;;2.50;;
16407;SDS011;8313;49.894;8.084;2023-03-24T01:27:11;2.77;;;2.40;;
16407;SDS011;8313;49.894;8.084;2023-03-24T01:29:37;3.33;;;2.30;;
16407;SDS011;8313;49.894;8.084;2023-03-24T01:32:03;3.17;;;2.53;;
16407;SDS011;8313;49.894;8.084;2023-03-24T01:34:29;3.60;;;2.93;;
16407;SDS011;8313;49.894;8.084;2023-03-24T01:36:56;5.83;;;2.87;;
16407;SDS011;8313;49.894;8.084;2023-03-24T01:39:21;3.23;;;2.90;;
16407;SDS011;8313;49.894;8.084;2023-03-24T01:41:47;3.03;;;2.40;;
16407;SDS011;8313;49.894;8.084;2023-03-24T01:46:59;2.90;;;2.53;;
16407;SDS011;8313;49.894;8.084;2023-03-24T01:49:37;2.80;;;2.57;;
16407;SDS011;8313;49.894;8.084;2023-03-24T01:52:14;3.37;;;2.90;;
16407;SDS011;8313;49.894;8.084;2023-03-24T01:54:48;2.97;;;2.67;;
16407;SDS011;8313;49.894;8.084;2023-03-24T01:57:25;2.90;;;2.50;;
16407;SDS011;8313;49.894;8.084;2023-03-24T01:59:56;2.93;;;2.20;;
16407;SDS011;8313;49.894;8.084;2023-03-24T02:02:42;4.03;;;2.80;;
16407;SDS011;8313;49.894;8.084;2023-03-24T02:05:13;4.17;;;2.63;;
16407;SDS011;8313;49.894;8.084;2023-03-24T02:10:18;3.47;;;2.50;;
16407;SDS011;8313;49.894;8.084;2023-03-24T02:12:45;2.90;;;2.57;;
16407;SDS011;8313;49.894;8.084;2023-03-24T02:15:14;2.90;;;2.60;;
16407;SDS011;8313;49.894;8.084;2023-03-24T02:23:50;4.80;;;2.80;;
16407;SDS011;8313;49.894;8.084;2023-03-24T02:26:49;7.50;;;2.43;;
16407;SDS011;8313;49.894;8.084;2023-03-24T02:42:54;4.93;;;3.60;;
16407;SDS011;8313;49.894;8.084;2023-03-24T02:45:53;3.77;;;3.43;;
16407;SDS011;8313;49.894;8.084;2023-03-24T02:56:49;2.90;;;2.70;;
16407;SDS011;8313;49.894;8.084;2023-03-24T02:59:34;3.70;;;3.20;;
16407;SDS011;8313;49.894;8.084;2023-03-24T03:02:07;5.63;;;3.40;;
16407;SDS011;8313;49.894;8.084;2023-03-24T03:04:46;5.70;;;3.80;;
16407;SDS011;8313;49.894;8.084;2023-03-24T03:07:38;4.57;;;3.43;;
16407;SDS011;8313;49.894;8.084;2023-03-24T03:10:08;4.20;;;3.53;;
16407;SDS011;8313;49.894;8.084;2023-03-24T03:12:39;3.60;;;2.53;;
16407;SDS011;8313;49.894;8.084;2023-03-24T03:15:08;5.07;;;3.77;;
16407;SDS011;8313;49.894;8.084;2023-03-24T03:18:08;3.80;;;3.10;;
16407;SDS011;8313;49.894;8.084;2023-03-24T03:20:44;4.30;;;3.90;;
16407;SDS011;8313;49.894;8.084;2023-03-24T03:23:51;5.27;;;3.90;;
16407;SDS011;8313;49.894;8.084;2023-03-24T03:26:14;4.23;;;3.40;;
16407;SDS011;8313;49.894;8.084;2023-03-24T03:28:45;4.97;;;4.17;;
16407;SDS011;8313;49.894;8.084;2023-03-24T03:31:23;5.07;;;4.57;;
16407;SDS011;8313;49.894;8.084;2023-03-24T03:39:22;6.10;;;4.70;;
16407;SDS011;8313;49.894;8.084;2023-03-24T03:41:55;7.40;;;4.40;;
16407;SDS011;8313;49.894;8.084;2023-03-24T03:44:21;8.90;;;4.77;;
16407;SDS011;8313;49.894;8.084;2023-03-24T03:46:48;7.40;;;5.27;;
16407;SDS011;8313;49.894;8.084;2023-03-24T03:49:20;10.23;;;4.90;;
16407;SDS011;8313;49.894;8.084;2023-03-24T03:51:46;6.17;;;4.73;;
16407;SDS011;8313;49.894;8.084;2023-03-24T03:54:14;8.80;;;4.80;;
16407;SDS011;8313;49.894;8.084;2023-03-24T03:56:43;6.63;;;5.13;;
16407;SDS011;8313;49.894;8.084;2023-03-24T03:59:30;7.70;;;5.50;;
16407;SDS011;8313;49.894;8.084;2023-03-24T04:05:02;6.80;;;4.83;;
16407;SDS011;8313;49.894;8.084;2023-03-24T04:16:27;7.67;;;5.70;;
16407;SDS011;8313;49.894;8.084;2023-03-24T04:30:14;8.00;;;5.43;;
16407;SDS011;8313;49.894;8.084;2023-03-24T04:32:58;8.27;;;4.57;;
16407;SDS011;8313;49.894;8.084;2023-03-24T04:35:48;13.00;;;5.53;;
16407;SDS011;8313;49.894;8.084;2023-03-24T04:38:31;6.37;;;5.00;;
16407;SDS011;8313;49.894;8.084;2023-03-24T04:41:16;9.03;;;5.73;;
16407;SDS011;8313;49.894;8.084;2023-03-24T04:43:51;7.20;;;4.77;;
16407;SDS011;8313;49.894;8.084;2023-03-24T04:46:21;5.97;;;5.30;;
16407;SDS011;8313;49.894;8.084;2023-03-24T04:48:54;7.37;;;5.37;;
16407;SDS011;8313;49.894;8.084;2023-03-24T04:51:28;7.30;;;5.00;;
16407;SDS011;8313;49.894;8.084;2023-03-24T04:54:03;6.80;;;5.67;;
16407;SDS011;8313;49.894;8.084;2023-03-24T04:56:40;5.97;;;5.10;;
16407;SDS011;8313;49.894;8.084;2023-03-24T04:59:40;4.30;;;3.90;;
16407;SDS011;8313;49.894;8.084;2023-03-24T05:02:08;10.20;;;4.20;;
16407;SDS011;8313;49.894;8.084;2023-03-24T05:04:52;4.60;;;3.87;;
16407;SDS011;8313;49.894;8.084;2023-03-24T05:07:37;8.63;;;3.70;;
16407;SDS011;8313;49.894;8.084;2023-03-24T05:10:09;3.60;;;3.30;;
16407;SDS011;8313;49.894;8.084;2023-03-24T05:12:43;5.00;;;4.13;;
16407;SDS011;8313;49.894;8.084;2023-03-24T05:15:18;4.87;;;3.70;;
16407;SDS011;8313;49.894;8.084;2023-03-24T05:17:46;6.20;;;3.60;;
16407;SDS011;8313;49.894;8.084;2023-03-24T05:20:12;5.03;;;3.70;;
16407;SDS011;8313;49.894;8.084;2023-03-24T05:22:41;4.70;;;3.60;;
16407;SDS011;8313;49.894;8.084;2023-03-24T05:25:07;5.17;;;3.90;;
16407;SDS011;8313;49.894;8.084;2023-03-24T05:27:33;6.03;;;4.27;;
16407;SDS011;8313;49.894;8.084;2023-03-24T05:30:09;6.63;;;4.10;;
16407;SDS011;8313;49.894;8.084;2023-03-24T05:32:36;3.27;;;2.97;;
16407;SDS011;8313;49.894;8.084;2023-03-24T05:35:02;4.17;;;2.97;;
16407;SDS011;8313;49.894;8.084;2023-03-24T05:37:31;3.40;;;3.00;;
16407;SDS011;8313;49.894;8.084;2023-03-24T05:39:57;2.30;;;2.10;;
16407;SDS011;8313;49.894;8.084;2023-03-24T05:42:43;4.03;;;3.50;;
16407;SDS011;8313;49.894;8.084;2023-03-24T05:45:10;3.40;;;2.80;;
16407;SDS011;8313;49.894;8.084;2023-03-24T05:47:36;3.10;;;2.70;;
16407;SDS011;8313;49.894;8.084;2023-03-24T05:50:02;3.17;;;2.50;;
16407;SDS011;8313;49.894;8.084;2023-03-24T05:52:30;2.63;;;2.43;;
16407;SDS011;8313;49.894;8.084;2023-03-24T05:55:08;2.37;;;2.17;;
16407;SDS011;8313;49.894;8.084;2023-03-24T05:57:35;2.60;;;2.40;;
16407;SDS011;8313;49.894;8.084;2023-03-24T06:00:13;2.50;;;2.30;;
16407;SDS011;8313;49.894;8.084;2023-03-24T06:03:05;2.43;;;2.07;;
16407;SDS011;8313;49.894;8.084;2023-03-24T06:05:36;2.40;;;2.20;;
16407;SDS011;8313;49.894;8.084;2023-03-24T06:08:02;4.40;;;2.70;;
16407;SDS011;8313;49.894;8.084;2023-03-24T06:10:31;2.67;;;2.47;;
16407;SDS011;8313;49.894;8.084;2023-03-24T06:12:58;1.80;;;1.70;;
16407;SDS011;8313;49.894;8.084;2023-03-24T06:15:25;2.13;;;1.93;;
16407;SDS011;8313;49.894;8.084;2023-03-24T06:17:53;4.77;;;2.07;;
16407;SDS011;8313;49.894;8.084;2023-03-24T06:20:39;3.17;;;2.30;;
16407;SDS011;8313;49.894;8.084;2023-03-24T06:23:08;2.60;;;2.37;;
16407;SDS011;8313;49.894;8.084;2023-03-24T06:25:46;1.90;;;1.70;;
16407;SDS011;8313;49.894;8.084;2023-03-24T06:28:22;2.53;;;2.33;;
16407;SDS011;8313;49.894;8.084;2023-03-24T06:30:51;2.63;;;2.43;;
16407;SDS011;8313;49.894;8.084;2023-03-24T06:33:23;2.90;;;2.57;;
16407;SDS011;8313;49.894;8.084;2023-03-24T06:35:51;2.63;;;2.43;;
16407;SDS011;8313;49.894;8.084;2023-03-24T06:38:17;2.70;;;2.50;;
16407;SDS011;8313;49.894;8.084;2023-03-24T06:40:43;2.50;;;2.30;;
16407;SDS011;8313;49.894;8.084;2023-03-24T06:43:10;2.53;;;2.27;;
16407;SDS011;8313;49.894;8.084;2023-03-24T06:45:37;2.90;;;2.60;;
16407;SDS011;8313;49.894;8.084;2023-03-24T06:48:05;3.40;;;3.10;;
16407;SDS011;8313;49.894;8.084;2023-03-24T06:50:32;3.30;;;3.00;;
16407;SDS011;8313;49.894;8.084;2023-03-24T06:53:03;3.30;;;2.87;;
16407;SDS011;8313;49.894;8.084;2023-03-24T06:55:31;2.80;;;2.60;;
16407;SDS011;8313;49.894;8.084;2023-03-24T06:57:57;6.10;;;3.80;;
16407;SDS011;8313;49.894;8.084;2023-03-24T07:00:23;5.13;;;3.60;;
16407;SDS011;8313;49.894;8.084;2023-03-24T07:03:00;4.33;;;3.73;;
16407;SDS011;8313;49.894;8.084;2023-03-24T07:05:26;4.17;;;3.57;;
16407;SDS011;8313;49.894;8.084;2023-03-24T07:07:53;3.63;;;3.30;;
16407;SDS011;8313;49.894;8.084;2023-03-24T07:10:44;3.80;;;3.50;;
16407;SDS011;8313;49.894;8.084;2023-03-24T07:13:10;4.00;;;3.70;;
16407;SDS011;8313;49.894;8.084;2023-03-24T07:15:38;3.23;;;3.03;;
16407;SDS011;8313;49.894;8.084;2023-03-24T07:18:04;3.80;;;3.07;;
16407;SDS011;8313;49.894;8.084;2023-03-24T07:20:39;3.77;;;3.47;;
16407;SDS011;8313;49.894;8.084;2023-03-24T07:23:10;3.73;;;3.20;;
16407;SDS011;8313;49.894;8.084;2023-03-24T07:25:42;4.00;;;3.43;;
16407;SDS011;8313;49.894;8.084;2023-03-24T07:28:17;4.90;;;4.00;;
16407;SDS011;8313;49.894;8.084;2023-03-24T07:30:42;3.50;;;3.20;;
16407;SDS011;8313;49.894;8.084;2023-03-24T07:33:09;4.20;;;3.20;;
16407;SDS011;8313;49.894;8.084;2023-03-24T07:35:37;4.63;;;4.03;;
16407;SDS011;8313;49.894;8.084;2023-03-24T07:38:04;3.20;;;2.90;;
16407;SDS011;8313;49.894;8.084;2023-03-24T07:40:30;4.60;;;3.90;;
16407;SDS011;8313;49.894;8.084;2023-03-24T07:42:59;4.00;;;3.60;;
16407;SDS011;8313;49.894;8.084;2023-03-24T07:45:52;6.70;;;3.63;;
16407;SDS011;8313;49.894;8.084;2023-03-24T07:48:17;5.17;;;3.83;;
16407;SDS011;8313;49.894;8.084;2023-03-24T07:50:43;4.00;;;3.60;;
16407;SDS011;8313;49.894;8.084;2023-03-24T07:53:30;4.40;;;4.00;;
16407;SDS011;8313;49.894;8.084;2023-03-24T07:55:56;5.97;;;5.30;;
16407;SDS011;8313;49.894;8.084;2023-03-24T07:58:23;4.60;;;4.03;;
16407;SDS011;8313;49.894;8.084;2023-03-24T08:01:18;6.37;;;4.77;;
16407;SDS011;8313;49.894;8.084;2023-03-24T08:03:47;5.20;;;4.17;;
16407;SDS011;8313;49.894;8.084;2023-03-24T08:06:16;4.90;;;4.50;;
16407;SDS011;8313;49.894;8.084;2023-03-24T08:08:49;5.20;;;4.20;;
16407;SDS011;8313;49.894;8.084;2023-03-24T08:11:15;4.10;;;3.67;;
16407;SDS011;8313;49.894;8.084;2023-03-24T08:13:41;4.20;;;3.80;;
16407;SDS011;8313;49.894;8.084;2023-03-24T08:16:06;4.77;;;3.80;;
16407;SDS011;8313;49.894;8.084;2023-03-24T08:18:33;4.47;;;4.07;;
16407;SDS011;8313;49.894;8.084;2023-03-24T08:20:59;4.67;;;4.20;;
16407;SDS011;8313;49.894;8.084;2023-03-24T08:23:26;4.00;;;3.60;;
16407;SDS011;8313;49.894;8.084;2023-03-24T08:25:52;5.93;;;4.40;;
16407;SDS011;8313;49.894;8.084;2023-03-24T08:28:18;4.03;;;3.73;;
16407;SDS011;8313;49.894;8.084;2023-03-24T08:30:44;3.00;;;2.70;;
16407;SDS011;8313;49.894;8.084;2023-03-24T08:33:10;3.53;;;3.23;;
16407;SDS011;8313;49.894;8.084;2023-03-24T08:35:37;3.57;;;3.10;;
16407;SDS011;8313;49.894;8.084;2023-03-24T08:38:03;4.20;;;3.80;;
16407;SDS011;8313;49.894;8.084;2023-03-24T08:40:30;3.30;;;3.00;;
16407;SDS011;8313;49.894;8.084;2023-03-24T08:42:59;3.70;;;3.40;;
16407;SDS011;8313;49.894;8.084;2023-03-24T08:45:28;3.27;;;2.97;;
16407;SDS011;8313;49.894;8.084;2023-03-24T08:47:56;2.07;;;1.90;;
16407;SDS011;8313;49.894;8.084;2023-03-24T08:50:24;1.40;;;1.30;;
16407;SDS011;8313;49.894;8.084;2023-03-24T08:52:52;0.87;;;0.80;;
16407;SDS011;8313;49.894;8.084;2023-03-24T08:55:23;0.90;;;0.90;;
16407;SDS011;8313;49.894;8.084;2023-03-24T08:57:49;0.80;;;0.80;;
16407;SDS011;8313;49.894;8.084;2023-03-24T09:00:16;0.90;;;0.80;;
16407;SDS011;8313;49.894;8.084;2023-03-24T09:02:43;0.83;;;0.70;;
16407;SDS011;8313;49.894;8.084;2023-03-24T09:05:11;0.57;;;0.47;;
16407;SDS011;8313;49.894;8.084;2023-03-24T09:07:37;0.70;;;0.70;;
16407;SDS011;8313;49.894;8.084;2023-03-24T09:10:07;1.10;;;1.00;;
16407;SDS011;8313;49.894;8.084;2023-03-24T09:12:34;0.50;;;0.50;;
16407;SDS011;8313;49.894;8.084;2023-03-24T09:15:02;1.10;;;0.70;;
16407;SDS011;8313;49.894;8.084;2023-03-24T09:17:28;1.00;;;1.00;;
16407;SDS011;8313;49.894;8.084;2023-03-24T09:19:54;1.10;;;1.00;;
16407;SDS011;8313;49.894;8.084;2023-03-24T09:22:20;6.83;;;1.10;;
16407;SDS011;8313;49.894;8.084;2023-03-24T09:24:46;1.17;;;1.00;;
16407;SDS011;8313;49.894;8.084;2023-03-24T09:27:13;1.10;;;1.00;;
16407;SDS011;8313;49.894;8.084;2023-03-24T09:29:42;0.80;;;0.80;;
16407;SDS011;8313;49.894;8.084;2023-03-24T09:32:08;1.30;;;1.20;;
16407;SDS011;8313;49.894;8.084;2023-03-24T09:34:33;1.33;;;0.63;;
16407;SDS011;8313;49.894;8.084;2023-03-24T09:37:02;0.60;;;0.60;;
16407;SDS011;8313;49.894;8.084;2023-03-24T09:39:29;1.43;;;0.73;;
16407;SDS011;8313;49.894;8.084;2023-03-24T09:41:54;0.60;;;0.60;;
16407;SDS011;8313;49.894;8.084;2023-03-24T09:47:03;0.67;;;0.57;;
16407;SDS011;8313;49.894;8.084;2023-03-24T09:49:39;0.60;;;0.60;;
16407;SDS011;8313;49.894;8.084;2023-03-24T09:52:09;1.57;;;0.60;;
16407;SDS011;8313;49.894;8.084;2023-03-24T09:54:41;0.50;;;0.40;;
16407;SDS011;8313;49.894;8.084;2023-03-24T09:57:13;0.70;;;0.70;;
16407;SDS011;8313;49.894;8.084;2023-03-24T09:59:44;0.60;;;0.60;;
16407;SDS011;8313;49.894;8.084;2023-03-24T10:02:11;0.50;;;0.50;;
16407;SDS011;8313;49.894;8.084;2023-03-24T10:04:40;0.50;;;0.50;;
16407;SDS011;8313;49.894;8.084;2023-03-24T10:07:08;0.70;;;0.60;;
16407;SDS011;8313;49.894;8.084;2023-03-24T10:10:13;0.90;;;0.60;;
16407;SDS011;8313;49.894;8.084;2023-03-24T10:12:46;1.87;;;1.77;;
16407;SDS011;8313;49.894;8.084;2023-03-24T10:23:43;9.43;;;7.30;;
16407;SDS011;8313;49.894;8.084;2023-03-24T10:29:08;2.70;;;2.50;;
16407;SDS011;8313;49.894;8.084;2023-03-24T10:31:59;2.50;;;1.73;;
16407;SDS011;8313;49.894;8.084;2023-03-24T10:34:40;1.20;;;1.10;;
16407;SDS011;8313;49.894;8.084;2023-03-24T10:37:09;1.43;;;1.33;;
16407;SDS011;8313;49.894;8.084;2023-03-24T10:39:35;1.23;;;1.13;;
16407;SDS011;8313;49.894;8.084;2023-03-24T10:42:02;1.70;;;1.60;;
16407;SDS011;8313;49.894;8.084;2023-03-24T10:44:28;3.30;;;2.60;;
16407;SDS011;8313;49.894;8.084;2023-03-24T10:46:55;10.73;;;6.97;;
16407;SDS011;8313;49.894;8.084;2023-03-24T10:49:23;5.23;;;4.20;;
16407;SDS011;8313;49.894;8.084;2023-03-24T10:51:52;5.70;;;4.30;;
16407;SDS011;8313;49.894;8.084;2023-03-24T10:54:26;2.30;;;1.63;;
16407;SDS011;8313;49.894;8.084;2023-03-24T10:59:24;2.23;;;1.10;;
16407;SDS011;8313;49.894;8.084;2023-03-24T11:04:35;3.57;;;1.00;;
16407;SDS011;8313;49.894;8.084;2023-03-24T11:09:41;1.23;;;1.10;;
16407;SDS011;8313;49.894;8.084;2023-03-24T11:12:21;1.80;;;1.00;;
16407;SDS011;8313;49.894;8.084;2023-03-24T11:17:41;3.37;;;1.37;;
16407;SDS011;8313;49.894;8.084;2023-03-24T11:20:43;1.90;;;0.97;;
16407;SDS011;8313;49.894;8.084;2023-03-24T11:23:18;6.20;;;4.53;;
16407;SDS011;8313;49.894;8.084;2023-03-24T11:26:04;7.33;;;2.20;;
16407;SDS011;8313;49.894;8.084;2023-03-24T11:28:41;5.60;;;3.37;;
16407;SDS011;8313;49.894;8.084;2023-03-24T11:31:09;8.57;;;3.87;;
16407;SDS011;8313;49.894;8.084;2023-03-24T11:38:58;1.93;;;1.53;;
16407;SDS011;8313;49.894;8.084;2023-03-24T11:41:26;1.20;;;1.10;;
16407;SDS011;8313;49.894;8.084;2023-03-24T11:44:07;0.93;;;0.80;;
16407;SDS011;8313;49.894;8.084;2023-03-24T11:46:41;1.33;;;1.23;;
16407;SDS011;8313;49.894;8.084;2023-03-24T11:49:08;1.33;;;1.23;;
16407;SDS011;8313;49.894;8.084;2023-03-24T11:51:40;3.90;;;1.30;;
16407;SDS011;8313;49.894;8.084;2023-03-24T11:54:10;2.73;;;0.93;;
16407;SDS011;8313;49.894;8.084;2023-03-24T11:59:26;4.00;;;1.00;;
16407;SDS011;8313;49.894;8.084;2023-03-24T12:10:17;5.53;;;2.20;;
16407;SDS011;8313;49.894;8.084;2023-03-24T12:18:33;11.40;;;7.33;;
16407;SDS011;8313;49.894;8.084;2023-03-24T12:26:05;2.90;;;1.07;;
16407;SDS011;8313;49.894;8.084;2023-03-24T12:34:12;1.53;;;1.40;;
16407;SDS011;8313;49.894;8.084;2023-03-24T12:37:00;2.37;;;1.07;;
16407;SDS011;8313;49.894;8.084;2023-03-24T12:42:44;3.77;;;0.90;;
16407;SDS011;8313;49.894;8.084;2023-03-24T12:59:17;10.50;;;6.80;;
16407;SDS011;8313;49.894;8.084;2023-03-24T13:01:49;4.27;;;3.77;;
16407;SDS011;8313;49.894;8.084;2023-03-24T13:04:29;2.20;;;2.00;;
16407;SDS011;8313;49.894;8.084;2023-03-24T13:14:52;2.10;;;1.63;;
16407;SDS011;8313;49.894;8.084;2023-03-24T13:26:06;1.27;;;1.17;;
16407;SDS011;8313;49.894;8.084;2023-03-24T13:34:27;4.80;;;1.60;;
16407;SDS011;8313;49.894;8.084;2023-03-24T13:37:01;4.13;;;1.07;;
16407;SDS011;8313;49.894;8.084;2023-03-24T13:39:34;2.43;;;1.20;;
16407;SDS011;8313;49.894;8.084;2023-03-24T13:42:01;1.80;;;1.27;;
16407;SDS011;8313;49.894;8.084;2023-03-24T13:44:41;3.83;;;1.20;;
16407;SDS011;8313;49.894;8.084;2023-03-24T13:49:38;4.30;;;1.40;;
16407;SDS011;8313;49.894;8.084;2023-03-24T13:52:18;1.47;;;1.37;;
16407;SDS011;8313;49.894;8.084;2023-03-24T13:54:57;1.03;;;0.87;;
16407;SDS011;8313;49.894;8.084;2023-03-24T13:57:25;4.00;;;1.43;;
16407;SDS011;8313;49.894;8.084;2023-03-24T14:00:03;1.30;;;1.20;;
16407;SDS011;8313;49.894;8.084;2023-03-24T14:06:02;10.73;;;8.00;;
16407;SDS011;8313;49.894;8.084;2023-03-24T14:15:01;6.17;;;4.80;;
16407;SDS011;8313;49.894;8.084;2023-03-24T14:19:31;1.17;;;1.07;;
16407;SDS011;8313;49.894;8.084;2023-03-24T14:24:57;2.03;;;1.20;;
16407;SDS011;8313;49.894;8.084;2023-03-24T14:29:54;1.27;;;1.00;;
16407;SDS011;8313;49.894;8.084;2023-03-24T14:32:25;1.53;;;1.10;;
16407;SDS011;8313;49.894;8.084;2023-03-24T14:34:53;3.97;;;1.30;;
16407;SDS011;8313;49.894;8.084;2023-03-24T14:37:24;3.23;;;1.10;;
16407;SDS011;8313;49.894;8.084;2023-03-24T14:39:51;2.07;;;1.07;;
16407;SDS011;8313;49.894;8.084;2023-03-24T14:44:57;3.63;;;1.47;;
16407;SDS011;8313;49.894;8.084;2023-03-24T14:47:24;0.90;;;0.70;;
16407;SDS011;8313;49.894;8.084;2023-03-24T14:50:02;0.97;;;0.87;;
16407;SDS011;8313;49.894;8.084;2023-03-24T14:52:42;1.17;;;1.03;;
16407;SDS011;8313;49.894;8.084;2023-03-24T14:55:13;1.70;;;1.50;;
16407;SDS011;8313;49.894;8.084;2023-03-24T14:58:08;6.53;;;1.60;;
16407;SDS011;8313;49.894;8.084;2023-03-24T15:00:42;1.33;;;0.70;;
16407;SDS011;8313;49.894;8.084;2023-03-24T15:03:29;3.30;;;1.40;;
16407;SDS011;8313;49.894;8.084;2023-03-24T15:06:20;2.07;;;0.90;;
16407;SDS011;8313;49.894;8.084;2023-03-24T15:08:51;2.47;;;1.13;;
16407;SDS011;8313;49.894;8.084;2023-03-24T15:11:24;0.77;;;0.77;;
16407;SDS011;8313;49.894;8.084;2023-03-24T15:13:55;7.43;;;1.00;;
16407;SDS011;8313;49.894;8.084;2023-03-24T15:16:29;1.37;;;1.23;;
16407;SDS011;8313;49.894;8.084;2023-03-24T15:23:59;1.07;;;0.67;;
16407;SDS011;8313;49.894;8.084;2023-03-24T15:26:26;0.87;;;0.70;;
16407;SDS011;8313;49.894;8.084;2023-03-24T15:31:24;1.10;;;1.00;;
16407;SDS011;8313;49.894;8.084;2023-03-24T15:34:00;4.03;;;0.87;;
16407;SDS011;8313;49.894;8.084;2023-03-24T15:36:27;3.03;;;1.00;;
16407;SDS011;8313;49.894;8.084;2023-03-24T15:39:02;0.70;;;0.70;;
16407;SDS011;8313;49.894;8.084;2023-03-24T15:41:42;5.20;;;1.33;;
16407;SDS011;8313;49.894;8.084;2023-03-24T15:44:08;2.43;;;0.93;;
16407;SDS011;8313;49.894;8.084;2023-03-24T15:46:41;1.10;;;0.97;;
16407;SDS011;8313;49.894;8.084;2023-03-24T15:49:13;2.00;;;1.00;;
16407;SDS011;8313;49.894;8.084;2023-03-24T15:51:48;1.87;;;1.23;;
16407;SDS011;8313;49.894;8.084;2023-03-24T15:54:59;1.00;;;0.83;;
16407;SDS011;8313;49.894;8.084;2023-03-24T15:57:13;2.07;;;1.10;;
16407;SDS011;8313;49.894;8.084;2023-03-24T16:04:54;2.60;;;0.90;;
16407;SDS011;8313;49.894;8.084;2023-03-24T16:07:24;1.40;;;1.00;;
16407;SDS011;8313;49.894;8.084;2023-03-24T16:09:55;2.97;;;1.37;;
16407;SDS011;8313;49.894;8.084;2023-03-24T16:12:23;1.23;;;0.70;;
16407;SDS011;8313;49.894;8.084;2023-03-24T16:14:49;2.03;;;0.97;;
16407;SDS011;8313;49.894;8.084;2023-03-24T16:17:15;4.03;;;1.43;;
16407;SDS011;8313;49.894;8.084;2023-03-24T16:19:40;2.00;;;1.20;;
16407;SDS011;8313;49.894;8.084;2023-03-24T16:22:10;1.70;;;1.30;;
16407;SDS011;8313;49.894;8.084;2023-03-24T16:24:35;1.47;;;1.10;;
16407;SDS011;8313;49.894;8.084;2023-03-24T16:27:01;1.67;;;1.23;;
16407;SDS011;8313;49.894;8.084;2023-03-24T16:29:27;1.00;;;0.90;;
16407;SDS011;8313;49.894;8.084;2023-03-24T16:31:54;3.53;;;1.27;;
16407;SDS011;8313;49.894;8.084;2023-03-24T16:34:21;3.70;;;1.97;;
16407;SDS011;8313;49.894;8.084;2023-03-24T16:36:47;2.83;;;0.97;;
16407;SDS011;8313;49.894;8.084;2023-03-24T16:39:15;2.10;;;1.70;;
16407;SDS011;8313;49.894;8.084;2023-03-24T16:41:46;2.40;;;1.90;;
16407;SDS011;8313;49.894;8.084;2023-03-24T16:44:12;6.37;;;2.90;;
16407;SDS011;8313;49.894;8.084;2023-03-24T16:46:38;2.90;;;2.00;;
16407;SDS011;8313;49.894;8.084;2023-03-24T16:49:05;8.23;;;4.30;;
16407;SDS011;8313;49.894;8.084;2023-03-24T16:51:43;10.87;;;6.97;;
16407;SDS011;8313;49.894;8.084;2023-03-24T16:54:10;6.77;;;4.30;;
16407;SDS011;8313;49.894;8.084;2023-03-24T16:56:36;11.83;;;5.50;;
16407;SDS011;8313;49.894;8.084;2023-03-24T16:59:02;7.80;;;5.60;;
16407;SDS011;8313;49.894;8.084;2023-03-24T17:01:33;15.53;;;8.33;;
16407;SDS011;8313;49.894;8.084;2023-03-24T17:04:19;29.77;;;13.60;;
16407;SDS011;8313;49.894;8.084;2023-03-24T17:06:47;26.97;;;12.90;;
16407;SDS011;8313;49.894;8.084;2023-03-24T17:09:17;12.70;;;7.73;;
16407;SDS011;8313;49.894;8.084;2023-03-24T17:11:49;44.80;;;19.50;;
16407;SDS011;8313;49.894;8.084;2023-03-24T17:14:16;66.03;;;29.40;;
16407;SDS011;8313;49.894;8.084;2023-03-24T17:16:43;10.07;;;5.37;;
16407;SDS011;8313;49.894;8.084;2023-03-24T17:19:10;4.40;;;1.53;;
16407;SDS011;8313;49.894;8.084;2023-03-24T17:21:59;1.67;;;1.47;;
16407;SDS011;8313;49.894;8.084;2023-03-24T17:24:26;4.70;;;1.97;;
16407;SDS011;8313;49.894;8.084;2023-03-24T17:26:52;4.07;;;1.80;;
16407;SDS011;8313;49.894;8.084;2023-03-24T17:29:18;3.17;;;1.40;;
16407;SDS011;8313;49.894;8.084;2023-03-24T17:31:43;2.03;;;1.27;;
16407;SDS011;8313;49.894;8.084;2023-03-24T17:34:12;1.40;;;1.30;;
16407;SDS011;8313;49.894;8.084;2023-03-24T17:36:38;3.40;;;1.10;;
16407;SDS011;8313;49.894;8.084;2023-03-24T17:39:05;1.90;;;1.20;;
16407;SDS011;8313;49.894;8.084;2023-03-24T17:41:34;2.00;;;0.87;;
16407;SDS011;8313;49.894;8.084;2023-03-24T17:44:00;3.10;;;0.90;;
16407;SDS011;8313;49.894;8.084;2023-03-24T17:46:26;1.80;;;1.17;;
16407;SDS011;8313;49.894;8.084;2023-03-24T17:48:51;2.30;;;0.97;;
16407;SDS011;8313;49.894;8.084;2023-03-24T17:51:17;4.67;;;1.53;;
16407;SDS011;8313;49.894;8.084;2023-03-24T17:53:43;2.33;;;0.97;;
16407;SDS011;8313;49.894;8.084;2023-03-24T17:56:09;1.17;;;1.07;;
16407;SDS011;8313;49.894;8.084;2023-03-24T17:58:35;1.70;;;1.40;;
16407;SDS011;8313;49.894;8.084;2023-03-24T18:01:01;2.10;;;1.00;;
16407;SDS011;8313;49.894;8.084;2023-03-24T18:03:31;1.10;;;0.80;;
16407;SDS011;8313;49.894;8.084;2023-03-24T18:06:06;2.07;;;0.90;;
16407;SDS011;8313;49.894;8.084;2023-03-24T18:08:34;2.87;;;1.20;;
16407;SDS011;8313;49.894;8.084;2023-03-24T18:11:07;1.10;;;0.90;;
16407;SDS011;8313;49.894;8.084;2023-03-24T18:13:35;1.77;;;1.10;;
16407;SDS011;8313;49.894;8.084;2023-03-24T18:16:01;8.90;;;1.43;;
16407;SDS011;8313;49.894;8.084;2023-03-24T18:18:27;4.20;;;1.53;;
16407;SDS011;8313;49.894;8.084;2023-03-24T18:20:53;2.93;;;0.83;;
16407;SDS011;8313;49.894;8.084;2023-03-24T18:23:20;4.13;;;1.40;;
16407;SDS011;8313;49.894;8.084;2023-03-24T18:25:46;4.80;;;1.30;;
16407;SDS011;8313;49.894;8.084;2023-03-24T18:28:11;3.63;;;1.50;;
16407;SDS011;8313;49.894;8.084;2023-03-24T18:30:39;2.17;;;1.40;;
16407;SDS011;8313;49.894;8.084;2023-03-24T18:33:05;2.60;;;1.17;;
16407;SDS011;8313;49.894;8.084;2023-03-24T18:35:31;12.73;;;1.73;;
16407;SDS011;8313;49.894;8.084;2023-03-24T18:37:59;2.10;;;1.10;;
16407;SDS011;8313;49.894;8.084;2023-03-24T18:40:24;3.37;;;1.00;;
16407;SDS011;8313;49.894;8.084;2023-03-24T18:42:51;1.70;;;1.10;;